sensor_id;sensor_type;location;lat;lon;timestamp;P1;durP1;ratioP1;P2;durP2;ratioP2
76298;SDS011;65236;42.332;23.550;2022-11-20T00:00:37;118.63;;;111.72;;
76298;SDS011;65236;42.332;23.550;2022-11-20T00:03:03;83.70;;;79.17;;
76298;SDS011;65236;42.332;23.550;2022-11-20T00:05:28;65.23;;;61.67;;
76298;SDS011;65236;42.332;23.550;2022-11-20T00:07:53;50.47;;;47.70;;
76298;SDS011;65236;42.332;23.550;2022-11-20T00:10:19;46.87;;;44.20;;
76298;SDS011;65236;42.332;23.550;2022-11-20T00:12:44;42.53;;;39.95;;
76298;SDS011;65236;42.332;23.550;2022-11-20T00:15:10;32.00;;;30.20;;
76298;SDS011;65236;42.332;23.550;2022-11-20T00:17:35;30.97;;;29.10;;
76298;SDS011;65236;42.332;23.550;2022-11-20T00:20:00;27.90;;;26.27;;
76298;SDS011;65236;42.332;23.550;2022-11-20T00:22:26;31.80;;;30.10;;
76298;SDS011;65236;42.332;23.550;2022-11-20T00:24:51;28.70;;;27.02;;
76298;SDS011;65236;42.332;23.550;2022-11-20T00:27:17;26.77;;;25.10;;
76298;SDS011;65236;42.332;23.550;2022-11-20T00:29:42;29.53;;;27.73;;
76298;SDS011;65236;42.332;23.550;2022-11-20T00:32:07;27.73;;;26.17;;
76298;SDS011;65236;42.332;23.550;2022-11-20T00:34:33;22.48;;;21.10;;
76298;SDS011;65236;42.332;23.550;2022-11-20T00:36:58;28.47;;;26.87;;
76298;SDS011;65236;42.332;23.550;2022-11-20T00:39:24;29.53;;;27.73;;
76298;SDS011;65236;42.332;23.550;2022-11-20T00:41:49;26.73;;;25.23;;
76298;SDS011;65236;42.332;23.550;2022-11-20T00:44:15;17.90;;;16.48;;
76298;SDS011;65236;42.332;23.550;2022-11-20T00:46:40;14.80;;;13.77;;
76298;SDS011;65236;42.332;23.550;2022-11-20T00:49:06;15.97;;;14.97;;
76298;SDS011;65236;42.332;23.550;2022-11-20T00:51:31;17.20;;;16.17;;
76298;SDS011;65236;42.332;23.550;2022-11-20T00:53:57;14.10;;;13.30;;
76298;SDS011;65236;42.332;23.550;2022-11-20T00:56:24;12.30;;;11.33;;
76298;SDS011;65236;42.332;23.550;2022-11-20T00:58:50;9.57;;;8.80;;
76298;SDS011;65236;42.332;23.550;2022-11-20T01:01:17;7.53;;;7.03;;
76298;SDS011;65236;42.332;23.550;2022-11-20T01:03:46;12.20;;;11.40;;
76298;SDS011;65236;42.332;23.550;2022-11-20T01:08:41;14.02;;;13.10;;
76298;SDS011;65236;42.332;23.550;2022-11-20T01:11:08;15.68;;;14.68;;
76298;SDS011;65236;42.332;23.550;2022-11-20T01:13:35;15.60;;;14.60;;
76298;SDS011;65236;42.332;23.550;2022-11-20T01:18:41;19.40;;;18.15;;
76298;SDS011;65236;42.332;23.550;2022-11-20T01:21:12;20.98;;;19.80;;
76298;SDS011;65236;42.332;23.550;2022-11-20T01:23:42;15.98;;;14.98;;
76298;SDS011;65236;42.332;23.550;2022-11-20T01:26:10;19.38;;;18.27;;
76298;SDS011;65236;42.332;23.550;2022-11-20T01:28:37;24.63;;;22.07;;
76298;SDS011;65236;42.332;23.550;2022-11-20T01:33:38;18.00;;;16.77;;
76298;SDS011;65236;42.332;23.550;2022-11-20T01:36:05;16.95;;;15.82;;
76298;SDS011;65236;42.332;23.550;2022-11-20T01:38:31;18.42;;;17.38;;
76298;SDS011;65236;42.332;23.550;2022-11-20T01:40:57;9.50;;;8.90;;
76298;SDS011;65236;42.332;23.550;2022-11-20T01:43:22;11.60;;;10.80;;
76298;SDS011;65236;42.332;23.550;2022-11-20T01:48:37;12.98;;;12.18;;
76298;SDS011;65236;42.332;23.550;2022-11-20T01:51:10;15.00;;;14.07;;
76298;SDS011;65236;42.332;23.550;2022-11-20T01:53:41;17.60;;;16.50;;
76298;SDS011;65236;42.332;23.550;2022-11-20T01:56:08;13.65;;;12.75;;
76298;SDS011;65236;42.332;23.550;2022-11-20T01:58:38;14.02;;;12.98;;
76298;SDS011;65236;42.332;23.550;2022-11-20T02:01:09;15.80;;;14.82;;
76298;SDS011;65236;42.332;23.550;2022-11-20T02:03:35;16.17;;;15.03;;
76298;SDS011;65236;42.332;23.550;2022-11-20T02:06:35;14.70;;;13.70;;
76298;SDS011;65236;42.332;23.550;2022-11-20T02:09:12;16.20;;;15.10;;
76298;SDS011;65236;42.332;23.550;2022-11-20T02:11:38;11.85;;;11.15;;
76298;SDS011;65236;42.332;23.550;2022-11-20T02:14:04;13.30;;;12.50;;
76298;SDS011;65236;42.332;23.550;2022-11-20T02:16:33;13.83;;;12.93;;
76298;SDS011;65236;42.332;23.550;2022-11-20T02:19:02;18.55;;;17.52;;
76298;SDS011;65236;42.332;23.550;2022-11-20T02:21:38;11.18;;;10.30;;
76298;SDS011;65236;42.332;23.550;2022-11-20T02:24:14;13.27;;;12.48;;
76298;SDS011;65236;42.332;23.550;2022-11-20T02:29:26;13.27;;;12.48;;
76298;SDS011;65236;42.332;23.550;2022-11-20T02:31:57;15.15;;;14.25;;
76298;SDS011;65236;42.332;23.550;2022-11-20T02:34:25;14.02;;;13.02;;
76298;SDS011;65236;42.332;23.550;2022-11-20T02:36:50;15.47;;;14.47;;
76298;SDS011;65236;42.332;23.550;2022-11-20T02:39:17;13.20;;;12.40;;
76298;SDS011;65236;42.332;23.550;2022-11-20T02:41:45;13.13;;;12.32;;
76298;SDS011;65236;42.332;23.550;2022-11-20T02:44:11;11.93;;;11.23;;
76298;SDS011;65236;42.332;23.550;2022-11-20T02:46:36;14.32;;;13.52;;
76298;SDS011;65236;42.332;23.550;2022-11-20T02:49:02;14.13;;;13.23;;
76298;SDS011;65236;42.332;23.550;2022-11-20T02:51:28;26.75;;;15.68;;
76298;SDS011;65236;42.332;23.550;2022-11-20T02:53:55;35.53;;;20.85;;
76298;SDS011;65236;42.332;23.550;2022-11-20T02:56:20;26.80;;;17.27;;
76298;SDS011;65236;42.332;23.550;2022-11-20T02:58:46;28.33;;;15.97;;
76298;SDS011;65236;42.332;23.550;2022-11-20T03:01:11;26.43;;;16.63;;
76298;SDS011;65236;42.332;23.550;2022-11-20T03:03:37;28.20;;;14.82;;
76298;SDS011;65236;42.332;23.550;2022-11-20T03:06:02;28.37;;;17.80;;
76298;SDS011;65236;42.332;23.550;2022-11-20T03:08:28;36.07;;;28.43;;
76298;SDS011;65236;42.332;23.550;2022-11-20T03:10:53;34.30;;;21.55;;
76298;SDS011;65236;42.332;23.550;2022-11-20T03:13:18;27.60;;;17.57;;
76298;SDS011;65236;42.332;23.550;2022-11-20T03:15:44;29.33;;;13.97;;
76298;SDS011;65236;42.332;23.550;2022-11-20T03:18:09;22.33;;;12.47;;
76298;SDS011;65236;42.332;23.550;2022-11-20T03:20:35;29.40;;;14.80;;
76298;SDS011;65236;42.332;23.550;2022-11-20T03:23:01;28.13;;;15.57;;
76298;SDS011;65236;42.332;23.550;2022-11-20T03:25:27;30.25;;;14.73;;
76298;SDS011;65236;42.332;23.550;2022-11-20T03:27:52;29.67;;;17.60;;
76298;SDS011;65236;42.332;23.550;2022-11-20T03:30:19;31.23;;;17.42;;
76298;SDS011;65236;42.332;23.550;2022-11-20T03:32:45;26.70;;;13.00;;
76298;SDS011;65236;42.332;23.550;2022-11-20T03:35:11;24.60;;;11.80;;
76298;SDS011;65236;42.332;23.550;2022-11-20T03:37:36;23.00;;;11.07;;
76298;SDS011;65236;42.332;23.550;2022-11-20T03:40:02;30.37;;;16.73;;
76298;SDS011;65236;42.332;23.550;2022-11-20T03:42:28;28.35;;;15.13;;
76298;SDS011;65236;42.332;23.550;2022-11-20T03:45:12;27.95;;;16.83;;
76298;SDS011;65236;42.332;23.550;2022-11-20T03:47:39;25.45;;;12.10;;
76298;SDS011;65236;42.332;23.550;2022-11-20T03:50:05;29.60;;;16.13;;
76298;SDS011;65236;42.332;23.550;2022-11-20T03:52:31;31.52;;;16.33;;
76298;SDS011;65236;42.332;23.550;2022-11-20T03:54:56;26.50;;;13.93;;
76298;SDS011;65236;42.332;23.550;2022-11-20T03:57:21;28.57;;;13.63;;
76298;SDS011;65236;42.332;23.550;2022-11-20T03:59:47;30.92;;;14.82;;
76298;SDS011;65236;42.332;23.550;2022-11-20T04:02:12;28.73;;;15.27;;
76298;SDS011;65236;42.332;23.550;2022-11-20T04:04:37;33.07;;;19.37;;
76298;SDS011;65236;42.332;23.550;2022-11-20T04:07:03;30.90;;;19.33;;
76298;SDS011;65236;42.332;23.550;2022-11-20T04:09:28;30.90;;;19.75;;
76298;SDS011;65236;42.332;23.550;2022-11-20T04:11:54;30.90;;;19.30;;
76298;SDS011;65236;42.332;23.550;2022-11-20T04:14:19;30.83;;;19.03;;
76298;SDS011;65236;42.332;23.550;2022-11-20T04:16:45;32.23;;;22.10;;
76298;SDS011;65236;42.332;23.550;2022-11-20T04:19:11;36.15;;;25.00;;
76298;SDS011;65236;42.332;23.550;2022-11-20T04:21:38;35.67;;;26.53;;
76298;SDS011;65236;42.332;23.550;2022-11-20T04:24:03;37.70;;;28.75;;
76298;SDS011;65236;42.332;23.550;2022-11-20T04:26:29;44.53;;;28.83;;
76298;SDS011;65236;42.332;23.550;2022-11-20T04:28:56;36.10;;;26.95;;
76298;SDS011;65236;42.332;23.550;2022-11-20T04:31:22;40.80;;;33.08;;
76298;SDS011;65236;42.332;23.550;2022-11-20T04:33:50;41.80;;;29.83;;
76298;SDS011;65236;42.332;23.550;2022-11-20T04:36:20;40.08;;;33.42;;
76298;SDS011;65236;42.332;23.550;2022-11-20T04:38:50;48.22;;;37.95;;
76298;SDS011;65236;42.332;23.550;2022-11-20T04:41:16;40.33;;;35.87;;
76298;SDS011;65236;42.332;23.550;2022-11-20T04:43:46;41.50;;;37.08;;
76298;SDS011;65236;42.332;23.550;2022-11-20T04:46:16;50.30;;;45.40;;
76298;SDS011;65236;42.332;23.550;2022-11-20T04:48:43;47.00;;;41.70;;
76298;SDS011;65236;42.332;23.550;2022-11-20T04:51:09;32.97;;;24.70;;
76298;SDS011;65236;42.332;23.550;2022-11-20T04:53:34;27.75;;;15.80;;
76298;SDS011;65236;42.332;23.550;2022-11-20T04:56:00;28.83;;;16.40;;
76298;SDS011;65236;42.332;23.550;2022-11-20T04:58:27;29.33;;;19.17;;
76298;SDS011;65236;42.332;23.550;2022-11-20T05:00:53;32.30;;;21.50;;
76298;SDS011;65236;42.332;23.550;2022-11-20T05:03:19;38.53;;;32.53;;
76298;SDS011;65236;42.332;23.550;2022-11-20T05:05:44;45.27;;;38.27;;
76298;SDS011;65236;42.332;23.550;2022-11-20T05:08:09;41.37;;;34.00;;
76298;SDS011;65236;42.332;23.550;2022-11-20T05:10:35;42.97;;;37.80;;
76298;SDS011;65236;42.332;23.550;2022-11-20T05:13:00;50.13;;;44.83;;
76298;SDS011;65236;42.332;23.550;2022-11-20T05:15:26;41.97;;;34.67;;
76298;SDS011;65236;42.332;23.550;2022-11-20T05:17:51;51.20;;;46.40;;
76298;SDS011;65236;42.332;23.550;2022-11-20T05:20:18;48.17;;;43.08;;
76298;SDS011;65236;42.332;23.550;2022-11-20T05:22:44;47.40;;;43.78;;
76298;SDS011;65236;42.332;23.550;2022-11-20T05:25:10;54.45;;;49.40;;
76298;SDS011;65236;42.332;23.550;2022-11-20T05:27:36;27.53;;;19.13;;
76298;SDS011;65236;42.332;23.550;2022-11-20T05:30:02;32.13;;;23.42;;
76298;SDS011;65236;42.332;23.550;2022-11-20T05:32:31;35.28;;;25.25;;
76298;SDS011;65236;42.332;23.550;2022-11-20T05:34:57;35.17;;;26.53;;
76298;SDS011;65236;42.332;23.550;2022-11-20T05:37:22;36.67;;;32.67;;
76298;SDS011;65236;42.332;23.550;2022-11-20T05:39:47;40.23;;;34.93;;
76298;SDS011;65236;42.332;23.550;2022-11-20T05:42:13;48.47;;;43.43;;
76298;SDS011;65236;42.332;23.550;2022-11-20T05:44:57;47.33;;;42.85;;
76298;SDS011;65236;42.332;23.550;2022-11-20T05:47:24;47.95;;;43.10;;
76298;SDS011;65236;42.332;23.550;2022-11-20T05:49:50;46.65;;;41.60;;
76298;SDS011;65236;42.332;23.550;2022-11-20T05:52:15;45.73;;;41.00;;
76298;SDS011;65236;42.332;23.550;2022-11-20T05:54:40;44.00;;;39.27;;
76298;SDS011;65236;42.332;23.550;2022-11-20T05:57:06;56.67;;;51.33;;
76298;SDS011;65236;42.332;23.550;2022-11-20T05:59:31;46.20;;;40.72;;
76298;SDS011;65236;42.332;23.550;2022-11-20T06:01:56;43.57;;;39.23;;
76298;SDS011;65236;42.332;23.550;2022-11-20T06:04:22;46.47;;;41.57;;
76298;SDS011;65236;42.332;23.550;2022-11-20T06:06:47;47.37;;;41.77;;
76298;SDS011;65236;42.332;23.550;2022-11-20T06:09:13;46.30;;;41.58;;
76298;SDS011;65236;42.332;23.550;2022-11-20T06:11:38;43.00;;;38.53;;
76298;SDS011;65236;42.332;23.550;2022-11-20T06:14:04;43.23;;;39.10;;
76298;SDS011;65236;42.332;23.550;2022-11-20T06:16:29;36.40;;;34.20;;
76298;SDS011;65236;42.332;23.550;2022-11-20T06:18:55;32.80;;;30.73;;
76298;SDS011;65236;42.332;23.550;2022-11-20T06:21:21;32.83;;;30.97;;
76298;SDS011;65236;42.332;23.550;2022-11-20T06:23:48;31.10;;;29.23;;
76298;SDS011;65236;42.332;23.550;2022-11-20T06:26:18;16.37;;;15.37;;
76298;SDS011;65236;42.332;23.550;2022-11-20T06:28:45;17.25;;;16.05;;
76298;SDS011;65236;42.332;23.550;2022-11-20T06:31:12;19.77;;;18.53;;
76298;SDS011;65236;42.332;23.550;2022-11-20T06:33:39;34.28;;;32.33;;
76298;SDS011;65236;42.332;23.550;2022-11-20T06:36:05;18.77;;;17.58;;
76298;SDS011;65236;42.332;23.550;2022-11-20T06:38:30;24.93;;;23.17;;
76298;SDS011;65236;42.332;23.550;2022-11-20T06:40:56;20.85;;;19.50;;
76298;SDS011;65236;42.332;23.550;2022-11-20T06:43:22;40.30;;;37.87;;
76298;SDS011;65236;42.332;23.550;2022-11-20T06:45:54;44.67;;;42.03;;
76298;SDS011;65236;42.332;23.550;2022-11-20T06:48:20;47.33;;;44.57;;
76298;SDS011;65236;42.332;23.550;2022-11-20T06:50:47;47.38;;;44.45;;
76298;SDS011;65236;42.332;23.550;2022-11-20T06:53:12;41.53;;;38.87;;
76298;SDS011;65236;42.332;23.550;2022-11-20T06:55:41;37.67;;;35.28;;
76298;SDS011;65236;42.332;23.550;2022-11-20T06:58:07;40.73;;;38.03;;
76298;SDS011;65236;42.332;23.550;2022-11-20T07:00:33;39.58;;;37.45;;
76298;SDS011;65236;42.332;23.550;2022-11-20T07:03:02;41.13;;;38.93;;
76298;SDS011;65236;42.332;23.550;2022-11-20T07:05:28;41.00;;;38.47;;
76298;SDS011;65236;42.332;23.550;2022-11-20T07:07:55;42.63;;;40.10;;
76298;SDS011;65236;42.332;23.550;2022-11-20T07:10:21;46.38;;;43.55;;
76298;SDS011;65236;42.332;23.550;2022-11-20T07:12:50;48.13;;;45.23;;
76298;SDS011;65236;42.332;23.550;2022-11-20T07:15:16;52.30;;;49.30;;
76298;SDS011;65236;42.332;23.550;2022-11-20T07:17:42;58.53;;;54.92;;
76298;SDS011;65236;42.332;23.550;2022-11-20T07:20:07;66.87;;;63.13;;
76298;SDS011;65236;42.332;23.550;2022-11-20T07:22:33;74.60;;;70.22;;
76298;SDS011;65236;42.332;23.550;2022-11-20T07:24:59;69.17;;;64.87;;
76298;SDS011;65236;42.332;23.550;2022-11-20T07:27:24;66.47;;;62.60;;
76298;SDS011;65236;42.332;23.550;2022-11-20T07:29:49;56.10;;;52.83;;
76298;SDS011;65236;42.332;23.550;2022-11-20T07:32:15;59.25;;;53.83;;
76298;SDS011;65236;42.332;23.550;2022-11-20T07:34:41;76.33;;;69.50;;
76298;SDS011;65236;42.332;23.550;2022-11-20T07:37:06;77.33;;;70.90;;
76298;SDS011;65236;42.332;23.550;2022-11-20T07:39:31;73.40;;;66.88;;
76298;SDS011;65236;42.332;23.550;2022-11-20T07:41:57;37.27;;;25.40;;
76298;SDS011;65236;42.332;23.550;2022-11-20T07:44:22;16.37;;;15.27;;
76298;SDS011;65236;42.332;23.550;2022-11-20T07:46:48;15.30;;;14.03;;
76298;SDS011;65236;42.332;23.550;2022-11-20T07:49:13;17.40;;;16.20;;
76298;SDS011;65236;42.332;23.550;2022-11-20T07:51:38;15.82;;;14.88;;
76298;SDS011;65236;42.332;23.550;2022-11-20T07:54:04;16.97;;;15.83;;
76298;SDS011;65236;42.332;23.550;2022-11-20T07:56:29;18.97;;;17.67;;
76298;SDS011;65236;42.332;23.550;2022-11-20T07:58:55;18.63;;;17.53;;
76298;SDS011;65236;42.332;23.550;2022-11-20T08:01:20;20.48;;;19.25;;
76298;SDS011;65236;42.332;23.550;2022-11-20T08:03:46;20.87;;;19.47;;
76298;SDS011;65236;42.332;23.550;2022-11-20T08:06:11;18.43;;;17.27;;
76298;SDS011;65236;42.332;23.550;2022-11-20T08:08:36;21.50;;;19.77;;
76298;SDS011;65236;42.332;23.550;2022-11-20T08:11:04;16.02;;;14.88;;
76298;SDS011;65236;42.332;23.550;2022-11-20T08:13:48;21.95;;;20.35;;
76298;SDS011;65236;42.332;23.550;2022-11-20T08:16:32;17.85;;;16.67;;
76298;SDS011;65236;42.332;23.550;2022-11-20T08:18:58;22.83;;;21.33;;
76298;SDS011;65236;42.332;23.550;2022-11-20T08:21:23;17.00;;;15.63;;
76298;SDS011;65236;42.332;23.550;2022-11-20T08:23:49;18.17;;;17.17;;
76298;SDS011;65236;42.332;23.550;2022-11-20T08:26:14;16.57;;;15.60;;
76298;SDS011;65236;42.332;23.550;2022-11-20T08:28:40;19.03;;;17.93;;
76298;SDS011;65236;42.332;23.550;2022-11-20T08:31:05;21.00;;;19.17;;
76298;SDS011;65236;42.332;23.550;2022-11-20T08:33:31;17.73;;;16.10;;
76298;SDS011;65236;42.332;23.550;2022-11-20T08:36:01;19.83;;;18.48;;
76298;SDS011;65236;42.332;23.550;2022-11-20T08:38:27;18.17;;;16.83;;
76298;SDS011;65236;42.332;23.550;2022-11-20T08:40:56;17.50;;;16.50;;
76298;SDS011;65236;42.332;23.550;2022-11-20T08:43:42;19.17;;;17.88;;
76298;SDS011;65236;42.332;23.550;2022-11-20T08:46:08;17.87;;;16.47;;
76298;SDS011;65236;42.332;23.550;2022-11-20T08:48:33;20.57;;;19.27;;
76298;SDS011;65236;42.332;23.550;2022-11-20T08:50:59;19.80;;;18.33;;
76298;SDS011;65236;42.332;23.550;2022-11-20T08:53:25;16.92;;;15.77;;
76298;SDS011;65236;42.332;23.550;2022-11-20T08:55:51;17.65;;;16.65;;
76298;SDS011;65236;42.332;23.550;2022-11-20T08:58:16;17.93;;;16.63;;
76298;SDS011;65236;42.332;23.550;2022-11-20T09:00:42;17.03;;;15.90;;
76298;SDS011;65236;42.332;23.550;2022-11-20T09:03:08;15.18;;;14.18;;
76298;SDS011;65236;42.332;23.550;2022-11-20T09:05:33;14.53;;;13.53;;
76298;SDS011;65236;42.332;23.550;2022-11-20T09:07:58;18.77;;;17.40;;
76298;SDS011;65236;42.332;23.550;2022-11-20T09:10:24;16.70;;;15.27;;
76298;SDS011;65236;42.332;23.550;2022-11-20T09:12:50;18.45;;;17.20;;
76298;SDS011;65236;42.332;23.550;2022-11-20T09:15:20;14.02;;;13.13;;
76298;SDS011;65236;42.332;23.550;2022-11-20T09:17:56;15.32;;;14.27;;
76298;SDS011;65236;42.332;23.550;2022-11-20T09:20:23;16.25;;;15.23;;
76298;SDS011;65236;42.332;23.550;2022-11-20T09:22:49;17.33;;;16.33;;
76298;SDS011;65236;42.332;23.550;2022-11-20T09:25:15;15.73;;;14.63;;
76298;SDS011;65236;42.332;23.550;2022-11-20T09:27:41;14.32;;;13.38;;
76298;SDS011;65236;42.332;23.550;2022-11-20T09:30:08;18.15;;;17.13;;
76298;SDS011;65236;42.332;23.550;2022-11-20T09:32:34;15.57;;;14.57;;
76298;SDS011;65236;42.332;23.550;2022-11-20T09:35:00;13.82;;;12.95;;
76298;SDS011;65236;42.332;23.550;2022-11-20T09:37:26;14.87;;;13.87;;
76298;SDS011;65236;42.332;23.550;2022-11-20T09:39:51;14.03;;;13.07;;
76298;SDS011;65236;42.332;23.550;2022-11-20T09:42:21;16.83;;;15.73;;
76298;SDS011;65236;42.332;23.550;2022-11-20T09:53:36;19.02;;;17.65;;
76298;SDS011;65236;42.332;23.550;2022-11-20T09:56:14;15.82;;;14.93;;
76298;SDS011;65236;42.332;23.550;2022-11-20T09:58:45;16.70;;;15.70;;
76298;SDS011;65236;42.332;23.550;2022-11-20T10:01:20;20.33;;;19.17;;
76298;SDS011;65236;42.332;23.550;2022-11-20T10:04:04;15.93;;;15.03;;
76298;SDS011;65236;42.332;23.550;2022-11-20T10:06:47;18.35;;;17.25;;
76298;SDS011;65236;42.332;23.550;2022-11-20T10:09:37;19.88;;;18.77;;
76298;SDS011;65236;42.332;23.550;2022-11-20T10:28:27;17.20;;;16.20;;
76298;SDS011;65236;42.332;23.550;2022-11-20T10:31:11;18.77;;;17.67;;
76298;SDS011;65236;42.332;23.550;2022-11-20T10:33:42;18.95;;;17.80;;
76298;SDS011;65236;42.332;23.550;2022-11-20T10:36:19;19.85;;;18.65;;
76298;SDS011;65236;42.332;23.550;2022-11-20T10:38:50;17.33;;;16.10;;
76298;SDS011;65236;42.332;23.550;2022-11-20T10:41:30;19.35;;;18.15;;
76298;SDS011;65236;42.332;23.550;2022-11-20T10:44:20;17.17;;;16.07;;
76298;SDS011;65236;42.332;23.550;2022-11-20T10:47:13;20.08;;;18.80;;
76298;SDS011;65236;42.332;23.550;2022-11-20T10:49:41;21.08;;;19.77;;
76298;SDS011;65236;42.332;23.550;2022-11-20T10:52:13;19.88;;;18.55;;
76298;SDS011;65236;42.332;23.550;2022-11-20T11:00:13;20.15;;;18.83;;
76298;SDS011;65236;42.332;23.550;2022-11-20T11:02:43;18.60;;;17.40;;
76298;SDS011;65236;42.332;23.550;2022-11-20T11:07:56;17.67;;;16.52;;
76298;SDS011;65236;42.332;23.550;2022-11-20T11:12:57;17.57;;;16.47;;
76298;SDS011;65236;42.332;23.550;2022-11-20T11:17:54;19.73;;;18.43;;
76298;SDS011;65236;42.332;23.550;2022-11-20T11:20:24;20.42;;;19.02;;
76298;SDS011;65236;42.332;23.550;2022-11-20T11:22:55;23.05;;;21.65;;
76298;SDS011;65236;42.332;23.550;2022-11-20T11:25:27;19.45;;;18.35;;
76298;SDS011;65236;42.332;23.550;2022-11-20T11:27:59;23.88;;;22.25;;
76298;SDS011;65236;42.332;23.550;2022-11-20T11:30:51;21.20;;;20.00;;
76298;SDS011;65236;42.332;23.550;2022-11-20T11:35:56;100.13;;;94.55;;
76298;SDS011;65236;42.332;23.550;2022-11-20T11:38:37;105.65;;;99.75;;
76298;SDS011;65236;42.332;23.550;2022-11-20T11:41:05;71.93;;;68.03;;
76298;SDS011;65236;42.332;23.550;2022-11-20T11:43:32;72.93;;;68.80;;
76298;SDS011;65236;42.332;23.550;2022-11-20T11:46:28;71.43;;;67.60;;
76298;SDS011;65236;42.332;23.550;2022-11-20T11:51:24;80.60;;;76.25;;
76298;SDS011;65236;42.332;23.550;2022-11-20T11:53:54;91.72;;;86.65;;
76298;SDS011;65236;42.332;23.550;2022-11-20T11:56:21;77.40;;;73.20;;
76298;SDS011;65236;42.332;23.550;2022-11-20T11:58:48;75.28;;;70.95;;
76298;SDS011;65236;42.332;23.550;2022-11-20T12:01:28;85.70;;;81.13;;
76298;SDS011;65236;42.332;23.550;2022-11-20T12:07:15;64.63;;;61.03;;
76298;SDS011;65236;42.332;23.550;2022-11-20T12:09:54;59.80;;;56.33;;
76298;SDS011;65236;42.332;23.550;2022-11-20T12:12:24;56.28;;;53.28;;
76298;SDS011;65236;42.332;23.550;2022-11-20T12:14:55;57.40;;;54.20;;
76298;SDS011;65236;42.332;23.550;2022-11-20T12:17:21;56.40;;;53.13;;
76298;SDS011;65236;42.332;23.550;2022-11-20T12:19:47;57.07;;;53.63;;
76298;SDS011;65236;42.332;23.550;2022-11-20T12:28:13;62.40;;;58.75;;
76298;SDS011;65236;42.332;23.550;2022-11-20T12:33:41;93.43;;;88.30;;
76298;SDS011;65236;42.332;23.550;2022-11-20T12:36:40;92.88;;;87.97;;
76298;SDS011;65236;42.332;23.550;2022-11-20T12:40:02;90.70;;;85.82;;
76298;SDS011;65236;42.332;23.550;2022-11-20T12:42:23;90.63;;;85.63;;
76298;SDS011;65236;42.332;23.550;2022-11-20T12:53:39;82.68;;;78.07;;
76298;SDS011;65236;42.332;23.550;2022-11-20T12:59:27;72.40;;;68.45;;
76298;SDS011;65236;42.332;23.550;2022-11-20T13:07:37;76.15;;;72.05;;
76298;SDS011;65236;42.332;23.550;2022-11-20T13:10:03;65.93;;;62.33;;
76298;SDS011;65236;42.332;23.550;2022-11-20T13:12:36;56.50;;;53.28;;
76298;SDS011;65236;42.332;23.550;2022-11-20T13:18:02;63.33;;;59.60;;
76298;SDS011;65236;42.332;23.550;2022-11-20T13:20:27;71.07;;;67.13;;
76298;SDS011;65236;42.332;23.550;2022-11-20T13:22:55;66.68;;;62.95;;
76298;SDS011;65236;42.332;23.550;2022-11-20T13:25:31;69.75;;;65.95;;
76298;SDS011;65236;42.332;23.550;2022-11-20T13:28:05;66.50;;;62.57;;
76298;SDS011;65236;42.332;23.550;2022-11-20T13:30:50;68.07;;;64.03;;
76298;SDS011;65236;42.332;23.550;2022-11-20T13:38:25;69.30;;;65.30;;
76298;SDS011;65236;42.332;23.550;2022-11-20T13:40:57;63.67;;;60.00;;
76298;SDS011;65236;42.332;23.550;2022-11-20T13:43:49;62.22;;;58.72;;
76298;SDS011;65236;42.332;23.550;2022-11-20T13:46:14;66.53;;;62.47;;
76298;SDS011;65236;42.332;23.550;2022-11-20T13:48:44;63.50;;;59.90;;
76298;SDS011;65236;42.332;23.550;2022-11-20T13:57:08;81.10;;;76.47;;
76298;SDS011;65236;42.332;23.550;2022-11-20T13:59:57;62.42;;;59.00;;
76298;SDS011;65236;42.332;23.550;2022-11-20T14:02:27;62.63;;;59.20;;
76298;SDS011;65236;42.332;23.550;2022-11-20T14:04:56;59.50;;;56.07;;
76298;SDS011;65236;42.332;23.550;2022-11-20T14:07:25;59.90;;;56.10;;
76298;SDS011;65236;42.332;23.550;2022-11-20T14:09:57;61.83;;;57.67;;
76298;SDS011;65236;42.332;23.550;2022-11-20T14:12:27;61.03;;;57.30;;
76298;SDS011;65236;42.332;23.550;2022-11-20T14:14:54;58.23;;;55.00;;
76298;SDS011;65236;42.332;23.550;2022-11-20T14:17:21;59.22;;;55.88;;
76298;SDS011;65236;42.332;23.550;2022-11-20T14:19:50;58.88;;;55.47;;
76298;SDS011;65236;42.332;23.550;2022-11-20T14:22:21;62.08;;;57.75;;
76298;SDS011;65236;42.332;23.550;2022-11-20T14:24:49;60.37;;;57.03;;
76298;SDS011;65236;42.332;23.550;2022-11-20T14:27:27;64.65;;;60.75;;
76298;SDS011;65236;42.332;23.550;2022-11-20T14:29:53;63.85;;;60.30;;
76298;SDS011;65236;42.332;23.550;2022-11-20T14:32:20;61.70;;;57.58;;
76298;SDS011;65236;42.332;23.550;2022-11-20T14:34:48;63.53;;;59.33;;
76298;SDS011;65236;42.332;23.550;2022-11-20T14:37:23;60.53;;;56.93;;
76298;SDS011;65236;42.332;23.550;2022-11-20T14:39:54;59.67;;;56.35;;
76298;SDS011;65236;42.332;23.550;2022-11-20T14:42:21;64.22;;;60.38;;
76298;SDS011;65236;42.332;23.550;2022-11-20T14:44:49;58.63;;;54.90;;
76298;SDS011;65236;42.332;23.550;2022-11-20T14:47:20;59.72;;;56.33;;
76298;SDS011;65236;42.332;23.550;2022-11-20T14:49:48;55.03;;;51.87;;
76298;SDS011;65236;42.332;23.550;2022-11-20T14:52:20;56.72;;;53.22;;
76298;SDS011;65236;42.332;23.550;2022-11-20T14:54:47;58.53;;;55.22;;
76298;SDS011;65236;42.332;23.550;2022-11-20T14:57:22;54.92;;;51.92;;
76298;SDS011;65236;42.332;23.550;2022-11-20T15:02:46;38.63;;;36.40;;
76298;SDS011;65236;42.332;23.550;2022-11-20T15:05:13;37.33;;;35.22;;
76298;SDS011;65236;42.332;23.550;2022-11-20T15:07:41;35.40;;;33.20;;
76298;SDS011;65236;42.332;23.550;2022-11-20T15:10:28;24.88;;;23.25;;
76298;SDS011;65236;42.332;23.550;2022-11-20T15:12:59;22.10;;;20.80;;
76298;SDS011;65236;42.332;23.550;2022-11-20T15:15:38;22.23;;;20.80;;
76298;SDS011;65236;42.332;23.550;2022-11-20T15:18:15;24.10;;;22.70;;
76298;SDS011;65236;42.332;23.550;2022-11-20T15:20:43;25.93;;;24.33;;
76298;SDS011;65236;42.332;23.550;2022-11-20T15:23:12;31.92;;;30.13;;
76298;SDS011;65236;42.332;23.550;2022-11-20T15:25:44;19.77;;;18.30;;
76298;SDS011;65236;42.332;23.550;2022-11-20T15:30:39;20.52;;;18.85;;
76298;SDS011;65236;42.332;23.550;2022-11-20T15:33:07;15.83;;;14.93;;
76298;SDS011;65236;42.332;23.550;2022-11-20T15:35:33;15.63;;;14.63;;
76298;SDS011;65236;42.332;23.550;2022-11-20T15:37:59;10.47;;;9.67;;
76298;SDS011;65236;42.332;23.550;2022-11-20T15:40:24;12.13;;;11.23;;
76298;SDS011;65236;42.332;23.550;2022-11-20T15:42:50;10.43;;;9.37;;
76298;SDS011;65236;42.332;23.550;2022-11-20T15:45:28;10.35;;;9.65;;
76298;SDS011;65236;42.332;23.550;2022-11-20T15:48:07;9.43;;;8.55;;
76298;SDS011;65236;42.332;23.550;2022-11-20T15:50:37;10.80;;;10.02;;
76298;SDS011;65236;42.332;23.550;2022-11-20T15:53:07;11.10;;;10.20;;
76298;SDS011;65236;42.332;23.550;2022-11-20T15:55:34;13.67;;;12.73;;
76298;SDS011;65236;42.332;23.550;2022-11-20T15:57:59;11.18;;;10.38;;
76298;SDS011;65236;42.332;23.550;2022-11-20T16:00:25;14.80;;;13.90;;
76298;SDS011;65236;42.332;23.550;2022-11-20T16:02:51;14.77;;;13.77;;